Time;durP1;ratioP1;P1;durP2;ratioP2;P2;SDS_P1;SDS_P2;PMS_P1;PMS_P2;Temp;Humidity;BMP_temperature;BMP_pressure;BME280_temperature;BME280_humidity;BME280_pressure;Samples;Min_cycle;Max_cycle;Signal;HPM_P1;HPM_P2
2023/10/10 00:00:04;;;;;;;;;;;;;;;16.89;100.00;98367.03;5144396;27;20524;-66
2023/10/10 00:02:31;;;;;;;;;;;;;;;16.90;100.00;98373.22;5146149;27;20340;-67
2023/10/10 00:05:03;;;;;;;;;;;;;;;16.88;100.00;98370.81;5143672;27;19923;-67
2023/10/10 00:07:30;;;;;;;;;;;;;;;16.88;100.00;98373.53;5142240;27;19966;-67
2023/10/10 00:09:59;;;;;;;;;;;;;;;16.89;100.00;98366.22;5144435;27;19923;-67
2023/10/10 00:12:29;;;;;;;;;;;;;;;16.87;100.00;98371.91;5146431;27;19927;-67
2023/10/10 00:15:05;;;;;;;;;;;;;;;16.88;100.00;98365.44;5144230;27;19927;-67
2023/10/10 00:17:36;;;;;;;;;;;;;;;16.88;100.00;98370.81;5142765;27;19927;-67
2023/10/10 00:20:09;;;;;;;;;;;;;;;16.88;100.00;98362.72;5145844;27;19945;-68
2023/10/10 00:22:36;;;;;;;;;;;;;;;16.87;100.00;98371.91;5146000;27;19924;-68
2023/10/10 00:25:11;;;;;;;;;;;;;;;16.88;100.00;98361.91;5148309;27;19924;-68
2023/10/10 00:27:39;;;;;;;;;;;;;;;16.86;100.00;98354.13;5142591;27;19924;-66
2023/10/10 00:30:10;;;;;;;;;;;;;;;16.88;100.00;98354.63;5145807;27;19924;-67
2023/10/10 00:32:39;;;;;;;;;;;;;;;16.85;100.00;98355.22;5145892;27;19924;-66
2023/10/10 00:35:06;;;;;;;;;;;;;;;16.85;100.00;98357.91;5141137;27;19924;-67
2023/10/10 00:37:34;;;;;;;;;;;;;;;16.84;100.00;98352.81;5142067;27;19924;-67
2023/10/10 00:40:07;;;;;;;;;;;;;;;16.85;100.00;98352.53;5144679;27;20108;-67
2023/10/10 00:42:38;;;;;;;;;;;;;;;16.85;100.00;98352.53;5144406;27;19924;-67
2023/10/10 00:45:09;;;;;;;;;;;;;;;16.84;100.00;98352.81;5142102;27;19927;-67
2023/10/10 00:47:40;;;;;;;;;;;;;;;16.83;100.00;98349.31;5158163;27;19955;-66
2023/10/10 00:50:08;;;;;;;;;;;;;;;16.82;100.00;98350.41;5145352;27;19924;-68
2023/10/10 00:52:36;;;;;;;;;;;;;;;16.80;100.00;98355.31;5144414;27;20715;-67
2023/10/10 00:55:04;;;;;;;;;;;;;;;16.76;100.00;98346.19;5147497;27;19923;-67
2023/10/10 00:57:35;;;;;;;;;;;;;;;16.77;100.00;98349.69;5141899;27;19945;-67
2023/10/10 01:00:06;;;;;;;;;;;;;;;16.76;100.00;98348.06;5144574;27;19967;-67
2023/10/10 01:02:34;;;;;;;;;;;;;;;16.76;100.00;98351.59;5145084;27;19923;-67
2023/10/10 01:05:11;;;;;;;;;;;;;;;16.77;100.00;98347.00;5142481;27;19923;-67
2023/10/10 01:07:38;;;;;;;;;;;;;;;16.74;100.00;98343.00;5142125;27;19924;-67
2023/10/10 01:10:11;;;;;;;;;;;;;;;16.73;100.00;98354.88;5145085;27;19924;-67
2023/10/10 01:12:39;;;;;;;;;;;;;;;16.73;100.00;98346.78;5145191;27;19923;-67
2023/10/10 01:15:14;;;;;;;;;;;;;;;16.74;100.00;98354.56;5141467;27;20000;-67
2023/10/10 01:17:40;;;;;;;;;;;;;;;16.73;100.00;98354.88;5141355;27;19924;-67
2023/10/10 01:20:18;;;;;;;;;;;;;;;16.72;100.00;98351.34;5144098;27;19945;-67
2023/10/10 01:22:47;;;;;;;;;;;;;;;16.72;100.00;98358.66;5144496;27;19924;-67
2023/10/10 01:25:42;;;;;;;;;;;;;;;16.72;100.00;98359.44;5146474;27;19930;-67
2023/10/10 01:28:22;;;;;;;;;;;;;;;16.68;100.00;98354.94;5132583;28;19924;-67
2023/10/10 01:30:59;;;;;;;;;;;;;;;16.66;100.00;98349.03;5132464;28;19920;-67
2023/10/10 01:33:35;;;;;;;;;;;;;;;16.65;100.00;98356.31;5132833;28;19924;-67
2023/10/10 01:36:03;;;;;;;;;;;;;;;16.63;100.00;98353.09;5132775;28;21100;-67
2023/10/10 01:38:55;;;;;;;;;;;;;;;16.64;100.00;98348.53;5132239;28;19967;-67
2023/10/10 01:41:31;;;;;;;;;;;;;;;16.63;100.00;98352.31;5140833;27;19931;-67
2023/10/10 01:44:08;;;;;;;;;;;;;;;16.60;100.00;98353.69;5142677;27;19923;-67
2023/10/10 01:46:35;;;;;;;;;;;;;;;16.58;100.00;98355.88;5144228;27;19923;-66
2023/10/10 01:49:02;;;;;;;;;;;;;;;16.58;100.00;98349.69;5141508;27;19927;-67
2023/10/10 01:51:33;;;;;;;;;;;;;;;16.57;100.00;98348.06;5140623;27;19923;-67
2023/10/10 01:53:59;;;;;;;;;;;;;;;16.58;100.00;98352.38;5148025;27;19969;-66
2023/10/10 01:56:27;;;;;;;;;;;;;;;16.58;100.00;98352.38;5143963;27;19924;-67
2023/10/10 01:58:54;;;;;;;;;;;;;;;16.57;100.00;98340.78;5142388;27;19923;-67
2023/10/10 02:01:23;;;;;;;;;;;;;;;16.56;100.00;98347.25;5140356;27;19930;-68
2023/10/10 02:03:51;;;;;;;;;;;;;;;16.50;100.00;98344.88;5141381;27;19924;-67
2023/10/10 02:06:24;;;;;;;;;;;;;;;16.51;100.00;98338.41;5144387;27;20010;-67
2023/10/10 02:08:51;;;;;;;;;;;;;;;16.50;100.00;98342.19;5142635;27;19966;-67
2023/10/10 02:11:20;;;;;;;;;;;;;;;16.50;100.00;98339.50;5140366;27;19932;-67
2023/10/10 02:13:48;;;;;;;;;;;;;;;16.50;100.00;98344.88;5140729;27;19924;-66
2023/10/10 02:16:17;;;;;;;;;;;;;;;16.50;100.00;98352.97;5143801;27;19920;-67
2023/10/10 02:18:51;;;;;;;;;;;;;;;16.49;100.00;98354.09;5143581;28;19930;-67
2023/10/10 02:21:22;;;;;;;;;;;;;;;16.47;100.00;98353.56;5156251;27;19923;-67
2023/10/10 02:23:59;;;;;;;;;;;;;;;16.46;100.00;98350.09;5147051;27;19923;-67
2023/10/10 02:26:35;;;;;;;;;;;;;;;16.45;100.00;98353.88;5143669;28;19924;-67
2023/10/10 02:41:24;;;;;;;;;;;;;;;16.41;100.00;98355.53;5099814;28;19976;-67
2023/10/10 02:44:08;;;;;;;;;;;;;;;16.43;100.00;98355.25;5099044;28;20482;-67
2023/10/10 02:46:37;;;;;;;;;;;;;;;16.40;100.00;98358.53;5096012;28;19936;-67
2023/10/10 02:49:12;;;;;;;;;;;;;;;16.40;100.00;98353.13;5099642;28;19950;-67
2023/10/10 02:51:40;;;;;;;;;;;;;;;16.40;100.00;98363.91;5100659;28;19925;-67
2023/10/10 02:54:22;;;;;;;;;;;;;;;16.40;100.00;98358.53;5095213;28;19931;-67
2023/10/10 02:56:51;;;;;;;;;;;;;;;16.40;100.00;98370.09;5099159;28;19924;-67
2023/10/10 02:59:21;;;;;;;;;;;;;;;16.38;100.00;98366.09;5096665;28;19947;-67
2023/10/10 03:01:57;;;;;;;;;;;;;;;16.35;100.00;98372.06;5097476;28;19921;-67
2023/10/10 03:04:52;;;;;;;;;;;;;;;16.36;100.00;98361.00;5100127;28;19928;-67
2023/10/10 03:07:15;;;;;;;;;;;;;;;16.33;100.00;98363.47;5088540;28;19928;-67
2023/10/10 03:10:12;;;;;;;;;;;;;;;16.30;100.00;98358.66;5096220;28;19960;-67
2023/10/10 03:12:31;;;;;;;;;;;;;;;16.27;100.00;98361.94;5090974;28;19931;-67
2023/10/10 03:15:12;;;;;;;;;;;;;;;16.29;100.00;98370.50;5098537;28;19924;-67
2023/10/10 03:17:47;;;;;;;;;;;;;;;16.29;100.00;98363.22;5099655;28;19925;-67
2023/10/10 03:21:05;;;;;;;;;;;;;;;16.31;100.00;98363.75;5088660;28;19980;-67
2023/10/10 03:23:19;;;;;;;;;;;;;;;16.27;100.00;98367.31;5098488;28;19947;-67
2023/10/10 03:25:51;;;;;;;;;;;;;;;16.25;100.00;98372.19;5093267;28;19996;-67
2023/10/10 03:28:19;;;;;;;;;;;;;;;16.27;100.00;98364.63;5096067;28;19925;-67
2023/10/10 03:30:53;;;;;;;;;;;;;;;16.27;100.00;98370.00;5096355;28;19963;-67
2023/10/10 03:33:36;;;;;;;;;;;;;;;16.27;100.00;98372.72;5099507;28;19920;-67
2023/10/10 03:36:13;;;;;;;;;;;;;;;16.18;100.00;98372.53;5096627;28;19929;-67
2023/10/10 03:39:16;;;;;;;;;;;;;;;16.17;100.00;98371.75;5095653;28;19963;-67
2023/10/10 05:23:34;;;;;;;;;;;;;;;15.86;100.00;98389.31;5073808;28;19984;-67
2023/10/10 05:26:02;;;;;;;;;;;;;;;15.82;100.00;98401.75;5082986;28;19987;-67
2023/10/10 05:28:30;;;;;;;;;;;;;;;15.67;100.00;98393.81;5083848;28;19920;-67
2023/10/10 05:30:57;;;;;;;;;;;;;;;15.68;100.00;98398.13;5081846;28;19959;-67
2023/10/10 05:33:26;;;;;;;;;;;;;;;15.71;100.00;98402.13;5080170;28;19935;-67
2023/10/10 05:35:57;;;;;;;;;;;;;;;15.73;100.00;98390.00;5081743;28;19929;-67
2023/10/10 05:38:26;;;;;;;;;;;;;;;15.75;100.00;98406.69;5083941;28;19929;-67
2023/10/10 05:40:53;;;;;;;;;;;;;;;15.77;100.00;98393.72;5081172;28;19936;-67
2023/10/10 05:43:26;;;;;;;;;;;;;;;15.77;100.00;98396.41;5079914;28;19947;-67
2023/10/10 05:45:53;;;;;;;;;;;;;;;15.78;100.00;98389.97;5081073;28;20000;-68
2023/10/10 05:48:19;;;;;;;;;;;;;;;15.80;100.00;98405.81;5082189;28;19974;-67
2023/10/10 05:50:45;;;;;;;;;;;;;;;15.79;100.00;98402.31;5082489;28;19929;-67
2023/10/10 05:53:11;;;;;;;;;;;;;;;15.73;100.00;98403.44;5079497;28;19921;-67
2023/10/10 05:55:40;;;;;;;;;;;;;;;15.72;100.00;98412.59;5079500;28;19925;-67
2023/10/10 05:58:08;;;;;;;;;;;;;;;15.73;100.00;98408.84;5082798;28;19958;-67
2023/10/10 06:00:37;;;;;;;;;;;;;;;15.75;100.00;98412.06;5083024;28;19931;-67
2023/10/10 06:03:05;;;;;;;;;;;;;;;15.77;100.00;98417.16;5079972;28;19955;-67
2023/10/10 06:05:32;;;;;;;;;;;;;;;15.78;100.00;98422.28;5079340;28;19925;-67
2023/10/10 06:07:59;;;;;;;;;;;;;;;15.80;100.00;98430.88;5081745;28;19963;-67
2023/10/10 06:10:31;;;;;;;;;;;;;;;15.81;100.00;98420.91;5082967;28;19946;-67
2023/10/10 06:13:03;;;;;;;;;;;;;;;15.83;100.00;98411.44;5080614;28;19931;-67
2023/10/10 06:15:33;;;;;;;;;;;;;;;15.82;100.00;98417.09;5079321;28;20413;-67
2023/10/10 06:18:08;;;;;;;;;;;;;;;15.83;100.00;98427.59;5081589;28;19928;-67
2023/10/10 06:20:40;;;;;;;;;;;;;;;15.86;100.00;98423.53;5082596;28;19946;-67
2023/10/10 06:23:07;;;;;;;;;;;;;;;15.83;100.00;98433.00;5079306;28;19925;-67
2023/10/10 06:25:33;;;;;;;;;;;;;;;15.87;100.00;98425.16;5079357;28;19984;-67
2023/10/10 06:28:05;;;;;;;;;;;;;;;15.88;100.00;98427.53;5081585;28;19952;-67
2023/10/10 06:30:36;;;;;;;;;;;;;;;15.89;100.00;98429.16;5082891;28;19929;-67
2023/10/10 06:33:09;;;;;;;;;;;;;;;15.90;100.00;98425.38;5079955;28;19933;-67
2023/10/10 06:35:37;;;;;;;;;;;;;;;15.91;100.00;98431.56;5079236;28;20018;-67
2023/10/10 06:38:10;;;;;;;;;;;;;;;15.84;100.00;98431.91;5082192;28;19927;-67
2023/10/10 06:40:42;;;;;;;;;;;;;;;15.81;100.00;98432.47;5082423;28;19938;-67
2023/10/10 06:43:10;;;;;;;;;;;;;;;15.82;100.00;98444.03;5071154;28;19971;-67
2023/10/10 06:45:40;;;;;;;;;;;;;;;15.85;100.00;98433.50;5078985;28;19925;-67
2023/10/10 06:48:08;;;;;;;;;;;;;;;15.84;100.00;98433.81;5082366;28;20031;-67
2023/10/10 06:50:38;;;;;;;;;;;;;;;15.83;100.00;98435.69;5082539;28;19971;-68
2023/10/10 06:53:05;;;;;;;;;;;;;;;15.90;100.00;98436.16;5079412;28;19971;-68
2023/10/10 06:55:37;;;;;;;;;;;;;;;15.93;100.00;98440.97;5079094;28;19961;-68
2023/10/10 06:58:05;;;;;;;;;;;;;;;15.92;100.00;98438.56;5081647;28;19932;-67
2023/10/10 07:00:42;;;;;;;;;;;;;;;15.95;100.00;98438.00;5083031;28;19935;-65
2023/10/10 07:03:08;;;;;;;;;;;;;;;15.96;100.00;98442.28;5070945;28;19925;-67
2023/10/10 07:05:35;;;;;;;;;;;;;;;15.94;100.00;98441.75;5078905;28;19928;-67
2023/10/10 07:08:12;;;;;;;;;;;;;;;15.93;100.00;98430.22;5081375;28;19973;-67
2023/10/10 07:10:42;;;;;;;;;;;;;;;15.95;100.00;98441.50;5082176;28;19924;-67
2023/10/10 07:13:13;;;;;;;;;;;;;;;15.95;100.00;98438.78;5070469;28;19993;-67
2023/10/10 07:15:42;;;;;;;;;;;;;;;15.98;100.00;98438.22;5078505;28;19947;-67
2023/10/10 07:18:15;;;;;;;;;;;;;;;15.99;100.00;98429.06;5069486;28;19925;-67
2023/10/10 07:23:36;;;;;;;;;;;;;;;16.05;100.00;98433.31;5065211;28;19925;-67
2023/10/10 07:26:05;;;;;;;;;;;;;;;16.10;100.00;98438.63;5082423;28;19932;-67
2023/10/10 07:28:36;;;;;;;;;;;;;;;16.14;100.00;98447.75;5085946;28;19932;-68
2023/10/10 07:31:07;;;;;;;;;;;;;;;16.13;100.00;98442.66;5083322;28;19924;-68
2023/10/10 07:33:40;;;;;;;;;;;;;;;16.10;100.00;98456.69;5082343;28;19955;-67
2023/10/10 07:36:12;;;;;;;;;;;;;;;16.15;100.00;98454.75;5085541;28;19976;-67
2023/10/10 07:38:39;;;;;;;;;;;;;;;16.16;100.00;98450.97;5085603;28;19924;-67
2023/10/10 07:41:05;;;;;;;;;;;;;;;16.23;100.00;98450.63;5082691;28;19925;-67
2023/10/10 07:43:34;;;;;;;;;;;;;;;16.19;100.00;98455.78;5082629;28;20393;-68
2023/10/10 07:46:12;;;;;;;;;;;;;;;16.28;100.00;98455.94;5084828;28;19947;-67
2023/10/10 07:48:39;;;;;;;;;;;;;;;16.34;100.00;98462.13;5085586;28;19928;-68
2023/10/10 07:51:08;;;;;;;;;;;;;;;16.27;100.00;98453.56;5082398;28;19931;-67
2023/10/10 07:53:41;;;;;;;;;;;;;;;16.31;100.00;98463.47;5082002;28;19924;-67
2023/10/10 07:56:07;;;;;;;;;;;;;;;16.32;100.00;98454.31;5085383;28;20587;-67
2023/10/10 07:58:42;;;;;;;;;;;;;;;16.31;100.00;98460.00;5084405;28;19962;-66
2023/10/10 08:01:09;;;;;;;;;;;;;;;16.34;100.00;98460.19;5073765;28;19956;-66
2023/10/10 08:03:36;;;;;;;;;;;;;;;16.37;100.00;98456.16;5082148;28;19960;-66
2023/10/10 08:06:08;;;;;;;;;;;;;;;16.37;100.00;98461.53;5085495;28;19933;-66
2023/10/10 08:08:35;;;;;;;;;;;;;;;16.30;100.00;98469.16;5087538;28;19920;-66
2023/10/10 08:11:05;;;;;;;;;;;;;;;16.28;100.00;98461.34;5083674;28;19925;-67
2023/10/10 08:13:33;;;;;;;;;;;;;;;16.41;100.00;98460.66;5080654;28;19951;-67
2023/10/10 08:16:02;;;;;;;;;;;;;;;16.45;100.00;98463.59;5083835;28;19947;-67
2023/10/10 08:18:49;;;;;;;;;;;;;;;16.51;100.00;98465.13;5085438;28;19924;-67
2023/10/10 08:21:22;;;;;;;;;;;;;;;16.54;100.00;98461.88;5074592;28;20281;-67
2023/10/10 08:23:51;;;;;;;;;;;;;;;16.54;100.00;98461.88;5082187;28;19925;-67
2023/10/10 08:26:18;;;;;;;;;;;;;;;16.62;100.00;98458.56;5083805;28;20003;-68
2023/10/10 08:28:45;;;;;;;;;;;;;;;16.65;100.00;98461.47;5084488;28;19924;-67
2023/10/10 08:31:13;;;;;;;;;;;;;;;16.58;100.00;98460.25;5081199;28;19999;-68
2023/10/10 08:33:40;;;;;;;;;;;;;;;16.75;100.00;98463.25;5081136;28;19920;-67
2023/10/10 08:36:06;;;;;;;;;;;;;;;16.75;100.00;98463.25;5084133;28;19952;-67
2023/10/10 08:38:34;;;;;;;;;;;;;;;16.87;100.00;98460.94;5084114;28;19924;-66
2023/10/10 08:41:08;;;;;;;;;;;;;;;17.00;100.00;98452.13;5081948;28;19924;-67
2023/10/10 08:43:36;;;;;;;;;;;;;;;17.05;100.00;98445.88;5080762;28;19929;-68
2023/10/10 08:46:04;;;;;;;;;;;;;;;17.12;100.00;98463.28;5083336;28;19924;-68
2023/10/10 08:48:33;;;;;;;;;;;;;;;16.97;100.00;98460.81;5084106;28;19983;-68
2023/10/10 08:51:03;;;;;;;;;;;;;;;17.12;100.00;98452.50;5081871;28;19946;-67
2023/10/10 08:53:34;;;;;;;;;;;;;;;17.23;100.00;98459.38;5080555;28;19925;-67
2023/10/10 08:56:03;;;;;;;;;;;;;;;17.33;100.00;98454.91;5081850;28;19925;-67
2023/10/10 08:58:31;;;;;;;;;;;;;;;17.45;100.00;98455.25;5084167;28;19963;-67
2023/10/10 09:00:58;;;;;;;;;;;;;;;17.47;100.00;98450.34;5082242;28;19924;-67
2023/10/10 09:03:26;;;;;;;;;;;;;;;17.58;100.00;98441.00;5080631;28;19929;-67
2023/10/10 09:05:52;;;;;;;;;;;;;;;17.45;100.00;98447.16;5081702;28;19929;-68
2023/10/10 09:08:26;;;;;;;;;;;;;;;17.46;100.00;98444.16;5084035;28;19924;-67
2023/10/10 09:10:56;;;;;;;;;;;;;;;17.28;100.00;98450.38;5082529;28;19928;-67
2023/10/10 09:13:25;;;;;;;;;;;;;;;17.31;100.00;98446.28;5080580;28;19924;-67
2023/10/10 09:15:55;;;;;;;;;;;;;;;17.60;100.00;98458.56;5081622;28;20035;-67
2023/10/10 09:18:23;;;;;;;;;;;;;;;17.74;100.00;98458.56;5083909;28;19932;-67
2023/10/10 09:20:50;;;;;;;;;;;;;;;17.66;100.00;98456.56;5082941;28;19959;-67
2023/10/10 09:23:21;;;;;;;;;;;;;;;17.65;100.00;98460.34;5080031;28;19924;-63
2023/10/10 09:25:55;;;;;;;;;;;;;;;17.51;100.00;98459.47;5080477;28;19947;-63
2023/10/10 09:28:22;;;;;;;;;;;;;;;17.90;100.00;98457.22;5083567;28;19924;-63
2023/10/10 09:30:58;;;;;;;;;;;;;;;17.80;100.00;98450.09;5082870;28;19955;-64
2023/10/10 09:33:27;;;;;;;;;;;;;;;17.99;100.00;98454.63;5080731;28;19929;-64
2023/10/10 09:35:58;;;;;;;;;;;;;;;18.02;100.00;98451.34;5081666;28;19924;-64
2023/10/10 09:38:33;;;;;;;;;;;;;;;18.00;100.00;98446.25;5083552;28;19964;-66
2023/10/10 09:41:14;;;;;;;;;;;;;;;17.94;100.00;98436.63;5081303;28;19924;-65
2023/10/10 09:43:49;;;;;;;;;;;;;;;18.13;100.00;98431.94;5080588;28;19931;-65
2023/10/10 09:46:19;;;;;;;;;;;;;;;18.34;100.00;98430.47;5072627;28;19935;-64
2023/10/10 09:49:17;;;;;;;;;;;;;;;18.30;100.00;98437.56;5079529;28;19972;-65
2023/10/10 09:54:29;;;;;;;;;;;;;;;18.52;100.00;98436.88;5080153;28;19956;-64
2023/10/10 09:56:56;;;;;;;;;;;;;;;18.56;100.00;98443.31;5081403;28;20423;-65
2023/10/10 09:59:28;;;;;;;;;;;;;;;18.49;100.00;98442.91;5079642;28;19924;-65
2023/10/10 10:02:03;;;;;;;;;;;;;;;18.86;100.00;98439.16;5080911;28;19924;-64
2023/10/10 10:04:38;;;;;;;;;;;;;;;18.88;100.00;98439.63;5082884;28;19920;-65
2023/10/10 10:07:13;;;;;;;;;;;;;;;19.08;100.00;98439.19;5079878;28;19979;-65
2023/10/10 10:10:00;;;;;;;;;;;;;;;19.18;100.00;98428.16;5079420;28;19951;-65
2023/10/10 10:12:36;;;;;;;;;;;;;;;19.33;100.00;98438.63;5069365;28;19947;-65
2023/10/10 10:15:12;;;;;;;;;;;;;;;19.39;100.00;98450.97;5081099;28;19928;-65
2023/10/10 10:17:47;;;;;;;;;;;;;;;19.29;100.00;98445.75;5083012;28;19924;-65
2023/10/10 10:20:21;;;;;;;;;;;;;;;19.31;100.00;98451.66;5072034;28;20417;-64
2023/10/10 10:22:52;;;;;;;;;;;;;;;19.48;100.00;98444.81;5079704;28;19924;-64
2023/10/10 10:25:25;;;;;;;;;;;;;;;19.54;100.00;98438.97;5080606;28;19983;-64
2023/10/10 10:28:00;;;;;;;;;;;;;;;19.62;100.00;98442.84;5080273;28;19925;-64
2023/10/10 10:30:47;;;;;;;;;;;;;;;19.71;100.00;98439.06;5081947;28;19924;-65
2023/10/10 10:33:19;;;;;;;;;;;;;;;19.88;100.00;98436.47;5071742;28;19925;-63
2023/10/10 10:36:16;;;;;;;;;;;;;;;19.78;100.00;98435.91;5079695;28;19925;-66
2023/10/10 10:39:18;;;;;;;;;;;;;;;19.97;100.00;98433.81;5080383;28;19925;-65
2023/10/10 10:41:49;;;;;;;;;;;;;;;20.09;100.00;98435.94;5094140;28;19966;-62
2023/10/10 10:44:28;;;;;;;;;;;;;;;20.25;100.00;98437.13;5092258;28;19964;-67
2023/10/10 10:46:56;;;;;;;;;;;;;;;20.31;100.00;98434.00;5100725;28;19978;-67
2023/10/10 10:49:28;;;;;;;;;;;;;;;20.38;100.00;98422.69;5102824;28;20007;-67
2023/10/10 10:52:14;;;;;;;;;;;;;;;20.42;100.00;98419.03;5100997;28;19928;-68
2023/10/10 10:54:43;;;;;;;;;;;;;;;20.57;100.00;98425.94;5101227;28;19950;-68
2023/10/10 10:57:27;;;;;;;;;;;;;;;20.69;100.00;98417.19;5090853;28;19925;-68
2023/10/10 10:59:55;;;;;;;;;;;;;;;20.71;100.00;98421.19;5100351;28;20122;-68
2023/10/10 11:02:29;;;;;;;;;;;;;;;20.82;100.00;98413.56;5087772;28;19951;-68
2023/10/10 11:04:57;;;;;;;;;;;;;;;20.86;100.00;98411.78;5087029;28;19963;-68
2023/10/10 11:07:29;;;;;;;;;;;;;;;20.80;100.00;98415.75;5103172;28;19924;-68
2023/10/10 11:10:06;;;;;;;;;;;;;;;20.89;100.00;98411.94;5086782;28;19929;-68
2023/10/10 11:12:36;;;;;;;;;;;;;;;20.93;100.00;98415.63;5106345;28;19928;-68
2023/10/10 11:15:07;;;;;;;;;;;;;;;20.93;100.00;98406.69;5103614;28;19924;-68
2023/10/10 11:17:38;;;;;;;;;;;;;;;21.08;98.82;98398.06;5084929;28;19924;-68
2023/10/10 11:20:26;;;;;;;;;;;;;;;21.09;100.00;98401.63;5105502;28;19920;-68
2023/10/10 11:22:54;;;;;;;;;;;;;;;21.13;100.00;98386.28;5104521;28;19935;-68
2023/10/10 11:25:27;;;;;;;;;;;;;;;21.36;97.11;98391.22;5102454;28;19924;-68
2023/10/10 11:28:03;;;;;;;;;;;;;;;21.44;97.92;98390.44;5103742;28;19924;-68
2023/10/10 11:30:30;;;;;;;;;;;;;;;21.45;97.39;98392.00;5106028;28;19924;-68
2023/10/10 11:33:16;;;;;;;;;;;;;;;21.36;100.00;98383.06;5103953;28;19954;-68
2023/10/10 11:35:59;;;;;;;;;;;;;;;21.53;95.78;98385.78;5102745;28;19928;-68
2023/10/10 11:38:35;;;;;;;;;;;;;;;21.69;93.09;98375.19;5096081;28;19924;-68
2023/10/10 11:41:08;;;;;;;;;;;;;;;21.79;95.12;98379.44;5104767;28;19925;-68
2023/10/10 11:43:37;;;;;;;;;;;;;;;21.49;99.83;98371.22;5105991;28;19932;-68
2023/10/10 11:46:05;;;;;;;;;;;;;;;21.51;99.39;98371.69;5103290;28;19983;-68
2023/10/10 11:48:41;;;;;;;;;;;;;;;21.43;100.00;98372.50;5102686;28;19924;-67
2023/10/10 11:51:11;;;;;;;;;;;;;;;21.36;100.00;98357.81;5105375;28;19940;-68
2023/10/10 11:53:37;;;;;;;;;;;;;;;21.48;98.63;98363.38;5082645;28;19932;-68
2023/10/10 11:56:04;;;;;;;;;;;;;;;21.32;100.00;98359.59;5104875;28;19989;-68
2023/10/10 11:58:36;;;;;;;;;;;;;;;21.31;100.00;98355.28;5105545;28;19924;-68
2023/10/10 12:01:05;;;;;;;;;;;;;;;21.32;100.00;98360.38;5102840;28;19930;-67
2023/10/10 12:03:41;;;;;;;;;;;;;;;21.26;100.00;98366.31;5102063;28;20381;-68
2023/10/10 12:06:14;;;;;;;;;;;;;;;21.28;100.00;98370.31;5125638;28;19923;-68
2023/10/10 12:08:44;;;;;;;;;;;;;;;21.36;97.75;98366.75;5125827;28;19927;-68
2023/10/10 12:11:12;;;;;;;;;;;;;;;21.12;100.00;98363.75;5113866;28;19958;-68
2023/10/10 12:13:39;;;;;;;;;;;;;;;21.25;100.00;98364.72;5121801;28;19928;-68
2023/10/10 12:16:10;;;;;;;;;;;;;;;21.51;96.63;98368.97;5125155;28;19924;-69
2023/10/10 12:18:43;;;;;;;;;;;;;;;21.27;100.00;98346.97;5125582;28;19950;-68
2023/10/10 12:21:14;;;;;;;;;;;;;;;21.39;100.00;98349.81;5113836;28;19931;-69
2023/10/10 12:23:40;;;;;;;;;;;;;;;21.40;99.74;98346.00;5121938;28;19924;-69
2023/10/10 12:26:08;;;;;;;;;;;;;;;21.34;100.00;98338.31;5125390;28;19969;-69
2023/10/10 12:28:35;;;;;;;;;;;;;;;21.19;100.00;98325.25;5126040;28;19924;-69
2023/10/10 12:31:03;;;;;;;;;;;;;;;21.00;100.00;98330.97;5122933;28;19923;-69
2023/10/10 12:33:31;;;;;;;;;;;;;;;21.11;100.00;98332.28;5121653;28;19946;-67
2023/10/10 12:35:58;;;;;;;;;;;;;;;21.08;100.00;98332.88;5123500;28;19956;-68
2023/10/10 12:38:26;;;;;;;;;;;;;;;21.21;98.59;98331.16;5124980;28;19927;-67
2023/10/10 12:40:53;;;;;;;;;;;;;;;21.51;96.78;98325.50;5123536;28;19928;-67
2023/10/10 12:43:20;;;;;;;;;;;;;;;21.75;92.38;98324.97;5137434;27;19931;-69
2023/10/10 12:45:47;;;;;;;;;;;;;;;21.86;91.70;98319.94;5121646;28;19972;-69
2023/10/10 12:48:20;;;;;;;;;;;;;;;21.73;92.58;98326.38;5106461;28;19920;-68
2023/10/10 12:50:47;;;;;;;;;;;;;;;21.88;89.44;98318.50;5124161;28;19981;-68
2023/10/10 12:53:16;;;;;;;;;;;;;;;21.99;87.33;98322.47;5121102;28;19924;-68
2023/10/10 12:55:51;;;;;;;;;;;;;;;21.41;96.86;98320.41;5121122;28;19951;-68
2023/10/10 12:58:20;;;;;;;;;;;;;;;21.74;92.86;98317.91;5113908;28;19928;-69
2023/10/10 13:00:51;;;;;;;;;;;;;;;21.91;91.44;98320.59;5121200;28;19928;-69
2023/10/10 13:03:22;;;;;;;;;;;;;;;22.10;84.21;98322.88;5124414;28;19942;-69
2023/10/10 13:05:51;;;;;;;;;;;;;;;22.20;86.06;98319.00;5123954;28;19945;-67
2023/10/10 13:08:22;;;;;;;;;;;;;;;22.38;81.73;98323.22;5121148;28;19920;-69
2023/10/10 13:10:54;;;;;;;;;;;;;;;22.25;84.09;98316.88;5121514;28;20276;-68
2023/10/10 13:13:31;;;;;;;;;;;;;;;22.29;81.11;98311.59;5124603;28;19951;-68
2023/10/10 13:16:07;;;;;;;;;;;;;;;22.38;82.82;98304.97;5122381;28;19927;-69
2023/10/10 13:18:35;;;;;;;;;;;;;;;21.75;91.55;98307.84;5120773;28;19939;-69
2023/10/10 13:21:02;;;;;;;;;;;;;;;21.17;100.00;98311.97;5123086;28;19924;-68
2023/10/10 13:23:29;;;;;;;;;;;;;;;21.29;100.00;98312.09;5119711;28;20085;-68
2023/10/10 13:25:58;;;;;;;;;;;;;;;21.67;89.79;98300.50;5122257;28;19924;-68
2023/10/10 13:28:24;;;;;;;;;;;;;;;21.97;86.54;98299.47;5123915;28;19924;-68
2023/10/10 13:30:50;;;;;;;;;;;;;;;22.22;84.84;98311.34;5123006;28;19934;-68
2023/10/10 13:33:17;;;;;;;;;;;;;;;22.42;82.10;98305.91;5120444;28;19924;-69
2023/10/10 13:35:45;;;;;;;;;;;;;;;22.39;84.57;98301.13;5120365;28;19932;-68
2023/10/10 13:38:12;;;;;;;;;;;;;;;22.39;82.31;98290.25;5112275;28;20025;-68
2023/10/10 13:40:43;;;;;;;;;;;;;;;22.47;82.85;98296.75;5120138;28;19952;-68
2023/10/10 13:43:16;;;;;;;;;;;;;;;22.58;82.07;98304.22;5112051;28;19959;-69
2023/10/10 13:45:43;;;;;;;;;;;;;;;22.13;89.88;98286.88;5120433;28;20011;-69
2023/10/10 13:48:13;;;;;;;;;;;;;;;21.77;95.61;98295.50;5112151;28;20005;-68
2023/10/10 13:50:42;;;;;;;;;;;;;;;21.80;94.46;98285.91;5120732;28;19924;-68
2023/10/10 13:53:11;;;;;;;;;;;;;;;21.89;87.67;98292.94;5104789;28;19919;-68
2023/10/10 13:55:39;;;;;;;;;;;;;;;22.22;82.36;98295.00;5120336;28;19932;-68
2023/10/10 13:58:07;;;;;;;;;;;;;;;22.47;78.41;98292.09;5123144;28;19935;-68
2023/10/10 14:00:36;;;;;;;;;;;;;;;22.54;80.55;98297.81;5123733;28;19924;-69
2023/10/10 14:03:04;;;;;;;;;;;;;;;22.24;87.49;98288.09;5120893;28;19934;-69
2023/10/10 14:05:33;;;;;;;;;;;;;;;21.90;93.23;98289.09;5120279;28;19924;-68
2023/10/10 14:08:00;;;;;;;;;;;;;;;22.04;93.41;98286.13;5122375;28;19935;-68
2023/10/10 14:10:26;;;;;;;;;;;;;;;21.93;95.00;98293.06;5123440;28;19924;-68
2023/10/10 14:12:55;;;;;;;;;;;;;;;21.87;99.13;98283.47;5122244;28;20614;-68
2023/10/10 14:15:22;;;;;;;;;;;;;;;21.89;98.30;98282.06;5119981;28;19974;-68
2023/10/10 14:17:49;;;;;;;;;;;;;;;21.49;100.00;98286.19;5120244;28;19963;-69
2023/10/10 14:20:21;;;;;;;;;;;;;;;21.72;100.00;98289.47;5123239;28;19971;-68
2023/10/10 14:22:49;;;;;;;;;;;;;;;21.96;100.00;98287.78;5122583;28;19928;-68
2023/10/10 14:25:16;;;;;;;;;;;;;;;22.09;100.00;98288.69;5119532;28;19924;-68
2023/10/10 14:27:43;;;;;;;;;;;;;;;21.71;100.00;98277.78;5119663;28;19950;-69
2023/10/10 14:30:20;;;;;;;;;;;;;;;21.72;100.00;98284.84;5111364;28;19983;-68
2023/10/10 14:32:47;;;;;;;;;;;;;;;21.30;100.00;98281.13;5119894;28;19930;-68
2023/10/10 14:35:15;;;;;;;;;;;;;;;21.07;100.00;98281.63;5105175;28;20647;-67
2023/10/10 14:37:41;;;;;;;;;;;;;;;21.25;100.00;98277.78;5123646;28;19924;-67
2023/10/10 14:40:09;;;;;;;;;;;;;;;21.21;100.00;98283.06;5119710;28;19939;-67
2023/10/10 14:42:35;;;;;;;;;;;;;;;21.11;100.00;98275.25;5119585;28;20011;-67
2023/10/10 14:45:06;;;;;;;;;;;;;;;21.10;100.00;98292.69;5122086;28;20122;-68
2023/10/10 14:47:35;;;;;;;;;;;;;;;21.37;100.00;98280.63;5123157;28;19920;-68
2023/10/10 14:50:07;;;;;;;;;;;;;;;21.36;100.00;98290.69;5120836;28;19946;-68
2023/10/10 14:52:40;;;;;;;;;;;;;;;21.48;100.00;98290.00;5101750;28;19935;-68
2023/10/10 14:55:23;;;;;;;;;;;;;;;21.44;100.00;98283.66;5122267;28;19924;-68
2023/10/10 14:57:49;;;;;;;;;;;;;;;21.60;100.00;98270.31;5102440;28;19924;-68